Terminal Aerodrome Forecast
Issued by NWS Sioux Falls, SD

Home | Current Version | Previous Version | Graphics & Text | Print | Product List | Glossary Off
Versions: 1 2 3 4 5 6 7 8 9 10 11 12 13 14 15 16

000
FTUS43 KFSD 210500
TAFSUX
TAF
KSUX 210520Z 2106/2206 19007KT P6SM SCT110 BKN200
      TEMPO 2108/2110 -TSRA BKN060CB
     FM211000 24006KT P6SM BKN150
     FM211200 32012G18KT P6SM BKN200
     FM211400 35019G26KT P6SM SKC
     FM220100 36010KT P6SM SKC=

USA.gov is the U.S. government's official web portal to all federal, state and local government web resources and services.